sensor_id;sensor_type;location;lat;lon;timestamp;P1;durP1;ratioP1;P2;durP2;ratioP2
46365;SDS011;32073;49.166;8.076;2022-12-29T00:01:14;2.60;;;1.45;;
46365;SDS011;32073;49.166;8.076;2022-12-29T00:05:15;3.03;;;1.25;;
46365;SDS011;32073;49.166;8.076;2022-12-29T00:09:16;2.33;;;1.10;;
46365;SDS011;32073;49.166;8.076;2022-12-29T00:13:17;1.42;;;0.80;;
46365;SDS011;32073;49.166;8.076;2022-12-29T00:17:36;2.05;;;0.75;;
46365;SDS011;32073;49.166;8.076;2022-12-29T00:21:37;1.70;;;0.88;;
46365;SDS011;32073;49.166;8.076;2022-12-29T00:25:57;1.70;;;0.68;;
46365;SDS011;32073;49.166;8.076;2022-12-29T00:34:38;2.22;;;0.63;;
46365;SDS011;32073;49.166;8.076;2022-12-29T00:38:58;1.90;;;0.60;;
46365;SDS011;32073;49.166;8.076;2022-12-29T00:43:28;1.35;;;0.60;;
46365;SDS011;32073;49.166;8.076;2022-12-29T00:47:47;1.50;;;0.80;;
46365;SDS011;32073;49.166;8.076;2022-12-29T00:51:48;1.45;;;0.40;;
46365;SDS011;32073;49.166;8.076;2022-12-29T00:55:49;1.50;;;0.52;;
46365;SDS011;32073;49.166;8.076;2022-12-29T00:59:50;1.02;;;0.57;;
46365;SDS011;32073;49.166;8.076;2022-12-29T01:03:51;1.98;;;0.50;;
46365;SDS011;32073;49.166;8.076;2022-12-29T01:07:52;1.25;;;0.50;;
46365;SDS011;32073;49.166;8.076;2022-12-29T01:11:52;0.80;;;0.45;;
46365;SDS011;32073;49.166;8.076;2022-12-29T01:15:54;2.55;;;0.50;;
46365;SDS011;32073;49.166;8.076;2022-12-29T01:19:55;1.30;;;0.40;;
46365;SDS011;32073;49.166;8.076;2022-12-29T01:23:56;3.30;;;0.68;;
46365;SDS011;32073;49.166;8.076;2022-12-29T01:27:56;0.98;;;0.45;;
46365;SDS011;32073;49.166;8.076;2022-12-29T01:31:57;3.30;;;0.70;;
46365;SDS011;32073;49.166;8.076;2022-12-29T01:36:01;2.00;;;0.40;;
46365;SDS011;32073;49.166;8.076;2022-12-29T01:40:04;2.10;;;0.50;;
46365;SDS011;32073;49.166;8.076;2022-12-29T01:48:47;0.98;;;0.38;;
46365;SDS011;32073;49.166;8.076;2022-12-29T01:52:54;0.57;;;0.50;;
46365;SDS011;32073;49.166;8.076;2022-12-29T01:57:07;0.93;;;0.50;;
46365;SDS011;32073;49.166;8.076;2022-12-29T02:01:12;4.25;;;0.70;;
46365;SDS011;32073;49.166;8.076;2022-12-29T02:05:27;1.65;;;0.70;;
46365;SDS011;32073;49.166;8.076;2022-12-29T02:09:37;1.73;;;0.70;;
46365;SDS011;32073;49.166;8.076;2022-12-29T02:13:37;0.63;;;0.55;;
46365;SDS011;32073;49.166;8.076;2022-12-29T02:17:41;1.13;;;0.40;;
46365;SDS011;32073;49.166;8.076;2022-12-29T02:31:57;0.47;;;0.40;;
46365;SDS011;32073;49.166;8.076;2022-12-29T02:40:36;1.15;;;0.50;;
46365;SDS011;32073;49.166;8.076;2022-12-29T02:44:55;1.55;;;0.52;;
46365;SDS011;32073;49.166;8.076;2022-12-29T02:49:22;2.58;;;0.50;;
46365;SDS011;32073;49.166;8.076;2022-12-29T02:53:40;1.17;;;0.60;;
46365;SDS011;32073;49.166;8.076;2022-12-29T02:58:09;1.10;;;0.52;;
46365;SDS011;32073;49.166;8.076;2022-12-29T03:11:29;2.25;;;0.40;;
46365;SDS011;32073;49.166;8.076;2022-12-29T03:20:08;3.10;;;0.38;;
46365;SDS011;32073;49.166;8.076;2022-12-29T03:24:15;0.68;;;0.60;;
46365;SDS011;32073;49.166;8.076;2022-12-29T03:28:22;1.35;;;0.40;;
46365;SDS011;32073;49.166;8.076;2022-12-29T03:33:01;0.98;;;0.40;;
46365;SDS011;32073;49.166;8.076;2022-12-29T03:37:02;0.70;;;0.40;;
46365;SDS011;32073;49.166;8.076;2022-12-29T03:41:11;2.60;;;0.63;;
46365;SDS011;32073;49.166;8.076;2022-12-29T03:45:19;1.77;;;0.45;;
46365;SDS011;32073;49.166;8.076;2022-12-29T03:49:20;0.85;;;0.60;;
46365;SDS011;32073;49.166;8.076;2022-12-29T03:53:21;1.48;;;0.47;;
46365;SDS011;32073;49.166;8.076;2022-12-29T03:57:21;2.35;;;0.63;;
46365;SDS011;32073;49.166;8.076;2022-12-29T04:01:22;0.68;;;0.43;;
46365;SDS011;32073;49.166;8.076;2022-12-29T04:05:23;1.75;;;0.52;;
46365;SDS011;32073;49.166;8.076;2022-12-29T04:09:23;1.33;;;0.50;;
46365;SDS011;32073;49.166;8.076;2022-12-29T04:13:24;1.58;;;0.60;;
46365;SDS011;32073;49.166;8.076;2022-12-29T04:17:25;0.70;;;0.50;;
46365;SDS011;32073;49.166;8.076;2022-12-29T04:21:25;0.77;;;0.50;;
46365;SDS011;32073;49.166;8.076;2022-12-29T04:25:26;0.80;;;0.50;;
46365;SDS011;32073;49.166;8.076;2022-12-29T04:29:27;0.60;;;0.40;;
46365;SDS011;32073;49.166;8.076;2022-12-29T04:33:27;1.92;;;0.57;;
46365;SDS011;32073;49.166;8.076;2022-12-29T04:37:28;0.68;;;0.60;;
46365;SDS011;32073;49.166;8.076;2022-12-29T04:41:29;1.05;;;0.60;;
46365;SDS011;32073;49.166;8.076;2022-12-29T04:45:30;0.95;;;0.50;;
46365;SDS011;32073;49.166;8.076;2022-12-29T04:49:30;0.80;;;0.50;;
46365;SDS011;32073;49.166;8.076;2022-12-29T04:53:31;1.33;;;0.50;;
46365;SDS011;32073;49.166;8.076;2022-12-29T04:57:31;2.00;;;0.65;;
46365;SDS011;32073;49.166;8.076;2022-12-29T05:01:32;0.90;;;0.60;;
46365;SDS011;32073;49.166;8.076;2022-12-29T05:05:33;1.40;;;0.70;;
46365;SDS011;32073;49.166;8.076;2022-12-29T05:09:34;1.60;;;0.50;;
46365;SDS011;32073;49.166;8.076;2022-12-29T05:13:34;1.48;;;0.65;;
46365;SDS011;32073;49.166;8.076;2022-12-29T05:17:35;1.77;;;0.80;;
46365;SDS011;32073;49.166;8.076;2022-12-29T05:21:36;1.75;;;0.90;;
46365;SDS011;32073;49.166;8.076;2022-12-29T05:25:37;1.98;;;0.70;;
46365;SDS011;32073;49.166;8.076;2022-12-29T05:29:37;1.85;;;0.70;;
46365;SDS011;32073;49.166;8.076;2022-12-29T05:33:38;0.95;;;0.70;;
46365;SDS011;32073;49.166;8.076;2022-12-29T05:37:39;1.98;;;0.77;;
46365;SDS011;32073;49.166;8.076;2022-12-29T05:41:39;2.72;;;0.80;;
46365;SDS011;32073;49.166;8.076;2022-12-29T05:45:40;1.33;;;0.50;;
46365;SDS011;32073;49.166;8.076;2022-12-29T05:49:40;1.38;;;0.60;;
46365;SDS011;32073;49.166;8.076;2022-12-29T05:53:41;1.23;;;0.63;;
46365;SDS011;32073;49.166;8.076;2022-12-29T05:57:42;1.92;;;0.55;;
46365;SDS011;32073;49.166;8.076;2022-12-29T06:01:42;2.70;;;0.80;;
46365;SDS011;32073;49.166;8.076;2022-12-29T06:05:44;1.75;;;0.57;;
46365;SDS011;32073;49.166;8.076;2022-12-29T06:09:46;0.90;;;0.70;;
46365;SDS011;32073;49.166;8.076;2022-12-29T06:13:46;0.82;;;0.60;;
46365;SDS011;32073;49.166;8.076;2022-12-29T06:17:47;2.50;;;1.08;;
46365;SDS011;32073;49.166;8.076;2022-12-29T06:21:47;2.25;;;0.60;;
46365;SDS011;32073;49.166;8.076;2022-12-29T06:25:48;1.70;;;0.68;;
46365;SDS011;32073;49.166;8.076;2022-12-29T06:29:49;1.27;;;0.50;;
46365;SDS011;32073;49.166;8.076;2022-12-29T06:33:49;2.53;;;0.70;;
46365;SDS011;32073;49.166;8.076;2022-12-29T06:37:50;1.48;;;0.60;;
46365;SDS011;32073;49.166;8.076;2022-12-29T06:41:51;1.42;;;0.45;;
46365;SDS011;32073;49.166;8.076;2022-12-29T06:45:53;1.23;;;0.70;;
46365;SDS011;32073;49.166;8.076;2022-12-29T06:49:54;0.80;;;0.70;;
46365;SDS011;32073;49.166;8.076;2022-12-29T06:53:55;1.70;;;0.80;;
46365;SDS011;32073;49.166;8.076;2022-12-29T06:57:56;2.03;;;0.77;;
46365;SDS011;32073;49.166;8.076;2022-12-29T07:01:58;2.15;;;1.02;;
46365;SDS011;32073;49.166;8.076;2022-12-29T07:05:59;1.20;;;0.90;;
46365;SDS011;32073;49.166;8.076;2022-12-29T07:09:59;1.48;;;0.93;;
46365;SDS011;32073;49.166;8.076;2022-12-29T07:14:00;3.00;;;1.20;;
46365;SDS011;32073;49.166;8.076;2022-12-29T07:18:01;1.70;;;1.08;;
46365;SDS011;32073;49.166;8.076;2022-12-29T07:22:03;0.60;;;0.60;;
46365;SDS011;32073;49.166;8.076;2022-12-29T07:26:05;3.22;;;1.08;;
46365;SDS011;32073;49.166;8.076;2022-12-29T07:30:08;1.85;;;0.85;;
46365;SDS011;32073;49.166;8.076;2022-12-29T07:34:10;1.38;;;0.75;;
46365;SDS011;32073;49.166;8.076;2022-12-29T07:38:10;3.33;;;0.80;;
46365;SDS011;32073;49.166;8.076;2022-12-29T07:42:11;3.55;;;0.98;;
46365;SDS011;32073;49.166;8.076;2022-12-29T07:46:11;3.50;;;1.45;;
46365;SDS011;32073;49.166;8.076;2022-12-29T07:50:12;1.33;;;0.80;;
46365;SDS011;32073;49.166;8.076;2022-12-29T07:54:13;2.38;;;1.10;;
46365;SDS011;32073;49.166;8.076;2022-12-29T07:58:13;2.70;;;1.08;;
46365;SDS011;32073;49.166;8.076;2022-12-29T08:02:14;3.33;;;0.73;;
46365;SDS011;32073;49.166;8.076;2022-12-29T08:06:15;2.63;;;0.80;;
46365;SDS011;32073;49.166;8.076;2022-12-29T08:10:16;1.45;;;0.73;;
46365;SDS011;32073;49.166;8.076;2022-12-29T08:14:17;1.63;;;0.77;;
46365;SDS011;32073;49.166;8.076;2022-12-29T08:18:18;4.20;;;0.80;;
46365;SDS011;32073;49.166;8.076;2022-12-29T08:22:18;1.60;;;0.93;;
46365;SDS011;32073;49.166;8.076;2022-12-29T08:26:19;2.00;;;1.00;;
46365;SDS011;32073;49.166;8.076;2022-12-29T08:30:20;1.00;;;0.70;;
46365;SDS011;32073;49.166;8.076;2022-12-29T08:34:20;1.83;;;1.00;;
46365;SDS011;32073;49.166;8.076;2022-12-29T08:38:21;2.75;;;1.23;;
46365;SDS011;32073;49.166;8.076;2022-12-29T08:42:22;3.42;;;0.90;;
46365;SDS011;32073;49.166;8.076;2022-12-29T08:46:23;3.30;;;0.90;;
46365;SDS011;32073;49.166;8.076;2022-12-29T08:50:24;2.58;;;0.95;;
46365;SDS011;32073;49.166;8.076;2022-12-29T08:54:25;1.27;;;0.75;;
46365;SDS011;32073;49.166;8.076;2022-12-29T08:58:26;1.25;;;0.82;;
46365;SDS011;32073;49.166;8.076;2022-12-29T09:02:27;2.13;;;1.20;;
46365;SDS011;32073;49.166;8.076;2022-12-29T09:06:28;2.65;;;1.08;;
46365;SDS011;32073;49.166;8.076;2022-12-29T09:10:28;2.33;;;1.23;;
46365;SDS011;32073;49.166;8.076;2022-12-29T09:14:29;2.92;;;1.10;;
46365;SDS011;32073;49.166;8.076;2022-12-29T09:18:30;2.28;;;0.90;;
46365;SDS011;32073;49.166;8.076;2022-12-29T09:22:31;2.05;;;1.10;;
46365;SDS011;32073;49.166;8.076;2022-12-29T09:26:32;2.67;;;1.00;;
46365;SDS011;32073;49.166;8.076;2022-12-29T09:30:33;5.22;;;1.00;;
46365;SDS011;32073;49.166;8.076;2022-12-29T09:34:34;2.33;;;1.13;;
46365;SDS011;32073;49.166;8.076;2022-12-29T09:38:35;2.00;;;1.00;;
46365;SDS011;32073;49.166;8.076;2022-12-29T09:47:24;1.80;;;0.98;;
46365;SDS011;32073;49.166;8.076;2022-12-29T09:51:26;1.77;;;0.85;;
46365;SDS011;32073;49.166;8.076;2022-12-29T09:55:35;2.72;;;1.00;;
46365;SDS011;32073;49.166;8.076;2022-12-29T09:59:59;2.08;;;0.95;;
46365;SDS011;32073;49.166;8.076;2022-12-29T10:08:25;1.80;;;0.88;;
46365;SDS011;32073;49.166;8.076;2022-12-29T10:21:20;6.50;;;2.75;;
46365;SDS011;32073;49.166;8.076;2022-12-29T10:29:48;3.92;;;1.58;;
46365;SDS011;32073;49.166;8.076;2022-12-29T10:33:59;2.50;;;0.82;;
46365;SDS011;32073;49.166;8.076;2022-12-29T10:38:26;6.25;;;3.25;;
46365;SDS011;32073;49.166;8.076;2022-12-29T10:42:36;5.13;;;2.28;;
46365;SDS011;32073;49.166;8.076;2022-12-29T10:46:43;2.67;;;1.50;;
46365;SDS011;32073;49.166;8.076;2022-12-29T10:50:53;1.80;;;0.80;;
46365;SDS011;32073;49.166;8.076;2022-12-29T10:54:59;1.52;;;1.20;;
46365;SDS011;32073;49.166;8.076;2022-12-29T10:59:06;4.03;;;0.90;;
46365;SDS011;32073;49.166;8.076;2022-12-29T11:08:00;2.58;;;0.80;;
46365;SDS011;32073;49.166;8.076;2022-12-29T11:12:22;4.70;;;1.10;;
46365;SDS011;32073;49.166;8.076;2022-12-29T11:16:30;1.77;;;1.05;;
46365;SDS011;32073;49.166;8.076;2022-12-29T11:20:35;2.67;;;1.00;;
46365;SDS011;32073;49.166;8.076;2022-12-29T11:24:43;2.60;;;1.08;;
46365;SDS011;32073;49.166;8.076;2022-12-29T11:28:47;2.15;;;0.90;;
46365;SDS011;32073;49.166;8.076;2022-12-29T11:33:16;2.72;;;0.82;;
46365;SDS011;32073;49.166;8.076;2022-12-29T11:37:18;1.80;;;0.63;;
46365;SDS011;32073;49.166;8.076;2022-12-29T11:41:30;1.90;;;0.90;;
46365;SDS011;32073;49.166;8.076;2022-12-29T11:45:33;3.78;;;0.88;;
46365;SDS011;32073;49.166;8.076;2022-12-29T11:49:35;2.13;;;0.88;;
46365;SDS011;32073;49.166;8.076;2022-12-29T11:53:43;3.28;;;1.05;;
46365;SDS011;32073;49.166;8.076;2022-12-29T11:57:55;2.45;;;1.00;;
46365;SDS011;32073;49.166;8.076;2022-12-29T12:02:47;2.45;;;0.70;;
46365;SDS011;32073;49.166;8.076;2022-12-29T12:06:55;1.80;;;1.08;;
46365;SDS011;32073;49.166;8.076;2022-12-29T12:11:11;3.50;;;0.73;;
46365;SDS011;32073;49.166;8.076;2022-12-29T12:15:22;1.33;;;0.70;;
46365;SDS011;32073;49.166;8.076;2022-12-29T12:28:39;1.33;;;0.65;;
46365;SDS011;32073;49.166;8.076;2022-12-29T12:37:52;0.65;;;0.32;;
46365;SDS011;32073;49.166;8.076;2022-12-29T12:42:34;0.65;;;0.40;;
46365;SDS011;32073;49.166;8.076;2022-12-29T13:01:02;2.33;;;0.60;;
46365;SDS011;32073;49.166;8.076;2022-12-29T13:05:38;1.10;;;0.73;;
46365;SDS011;32073;49.166;8.076;2022-12-29T13:14:32;1.08;;;0.47;;
46365;SDS011;32073;49.166;8.076;2022-12-29T13:33:11;1.85;;;0.60;;
46365;SDS011;32073;49.166;8.076;2022-12-29T13:37:53;1.63;;;0.70;;
46365;SDS011;32073;49.166;8.076;2022-12-29T13:42:00;2.00;;;1.00;;
46365;SDS011;32073;49.166;8.076;2022-12-29T13:46:05;2.35;;;0.90;;
46365;SDS011;32073;49.166;8.076;2022-12-29T13:50:16;0.85;;;0.57;;
46365;SDS011;32073;49.166;8.076;2022-12-29T13:58:52;1.75;;;0.60;;
46365;SDS011;32073;49.166;8.076;2022-12-29T14:07:48;0.68;;;0.50;;
46365;SDS011;32073;49.166;8.076;2022-12-29T14:12:27;1.63;;;0.77;;
46365;SDS011;32073;49.166;8.076;2022-12-29T14:16:40;2.65;;;0.95;;
46365;SDS011;32073;49.166;8.076;2022-12-29T14:24:52;1.23;;;0.30;;
46365;SDS011;32073;49.166;8.076;2022-12-29T14:28:53;0.38;;;0.38;;
46365;SDS011;32073;49.166;8.076;2022-12-29T14:33:01;1.27;;;0.47;;
46365;SDS011;32073;49.166;8.076;2022-12-29T14:41:38;14.95;;;7.03;;
46365;SDS011;32073;49.166;8.076;2022-12-29T14:45:40;44.97;;;17.70;;
46365;SDS011;32073;49.166;8.076;2022-12-29T14:49:42;6.35;;;2.83;;
46365;SDS011;32073;49.166;8.076;2022-12-29T14:53:51;1.98;;;0.90;;
46365;SDS011;32073;49.166;8.076;2022-12-29T14:57:52;1.20;;;0.68;;
46365;SDS011;32073;49.166;8.076;2022-12-29T15:02:01;2.78;;;0.47;;
46365;SDS011;32073;49.166;8.076;2022-12-29T15:06:12;0.80;;;0.40;;
46365;SDS011;32073;49.166;8.076;2022-12-29T15:10:18;0.80;;;0.50;;
46365;SDS011;32073;49.166;8.076;2022-12-29T15:18:33;0.82;;;0.40;;
46365;SDS011;32073;49.166;8.076;2022-12-29T15:22:34;0.52;;;0.40;;
46365;SDS011;32073;49.166;8.076;2022-12-29T15:26:42;1.48;;;0.47;;
46365;SDS011;32073;49.166;8.076;2022-12-29T15:30:53;1.00;;;0.80;;
46365;SDS011;32073;49.166;8.076;2022-12-29T15:35:13;2.60;;;0.73;;
46365;SDS011;32073;49.166;8.076;2022-12-29T15:39:35;1.45;;;0.50;;
46365;SDS011;32073;49.166;8.076;2022-12-29T15:48:24;2.72;;;1.05;;
46365;SDS011;32073;49.166;8.076;2022-12-29T15:52:25;2.80;;;0.80;;
46365;SDS011;32073;49.166;8.076;2022-12-29T15:56:30;7.13;;;3.05;;
46365;SDS011;32073;49.166;8.076;2022-12-29T16:00:33;9.00;;;3.67;;
46365;SDS011;32073;49.166;8.076;2022-12-29T16:04:37;6.82;;;2.28;;
46365;SDS011;32073;49.166;8.076;2022-12-29T16:08:39;5.70;;;3.03;;
46365;SDS011;32073;49.166;8.076;2022-12-29T16:12:40;5.95;;;3.30;;
46365;SDS011;32073;49.166;8.076;2022-12-29T16:16:41;2.75;;;1.38;;
46365;SDS011;32073;49.166;8.076;2022-12-29T16:20:44;2.63;;;0.93;;
46365;SDS011;32073;49.166;8.076;2022-12-29T16:24:45;3.85;;;1.70;;
46365;SDS011;32073;49.166;8.076;2022-12-29T16:28:50;2.58;;;1.20;;
46365;SDS011;32073;49.166;8.076;2022-12-29T16:32:57;7.72;;;3.72;;
46365;SDS011;32073;49.166;8.076;2022-12-29T16:37:19;11.98;;;5.60;;
46365;SDS011;32073;49.166;8.076;2022-12-29T16:41:30;6.40;;;4.18;;
46365;SDS011;32073;49.166;8.076;2022-12-29T16:49:49;5.60;;;3.15;;
46365;SDS011;32073;49.166;8.076;2022-12-29T16:53:53;9.30;;;4.75;;
46365;SDS011;32073;49.166;8.076;2022-12-29T16:57:59;9.20;;;3.85;;
46365;SDS011;32073;49.166;8.076;2022-12-29T17:02:01;16.50;;;7.38;;
46365;SDS011;32073;49.166;8.076;2022-12-29T17:06:17;9.00;;;4.22;;
46365;SDS011;32073;49.166;8.076;2022-12-29T17:10:20;7.43;;;4.10;;
46365;SDS011;32073;49.166;8.076;2022-12-29T17:14:45;8.32;;;3.90;;
46365;SDS011;32073;49.166;8.076;2022-12-29T17:18:49;4.83;;;2.73;;
46365;SDS011;32073;49.166;8.076;2022-12-29T17:22:50;4.47;;;1.63;;
46365;SDS011;32073;49.166;8.076;2022-12-29T17:26:54;3.67;;;1.35;;
46365;SDS011;32073;49.166;8.076;2022-12-29T17:31:02;3.33;;;1.23;;
46365;SDS011;32073;49.166;8.076;2022-12-29T17:35:08;2.13;;;0.65;;
46365;SDS011;32073;49.166;8.076;2022-12-29T17:39:17;4.05;;;0.80;;
46365;SDS011;32073;49.166;8.076;2022-12-29T17:43:18;2.97;;;0.80;;
46365;SDS011;32073;49.166;8.076;2022-12-29T17:47:19;2.00;;;0.60;;
46365;SDS011;32073;49.166;8.076;2022-12-29T17:51:20;4.00;;;0.68;;
46365;SDS011;32073;49.166;8.076;2022-12-29T17:55:22;3.40;;;0.70;;
46365;SDS011;32073;49.166;8.076;2022-12-29T17:59:28;3.33;;;0.60;;
46365;SDS011;32073;49.166;8.076;2022-12-29T18:03:38;2.22;;;0.52;;
46365;SDS011;32073;49.166;8.076;2022-12-29T18:07:40;4.13;;;1.63;;
46365;SDS011;32073;49.166;8.076;2022-12-29T18:11:41;6.53;;;1.23;;
46365;SDS011;32073;49.166;8.076;2022-12-29T18:15:43;5.50;;;0.90;;
46365;SDS011;32073;49.166;8.076;2022-12-29T18:19:43;2.35;;;0.90;;
46365;SDS011;32073;49.166;8.076;2022-12-29T18:23:44;1.83;;;0.70;;
46365;SDS011;32073;49.166;8.076;2022-12-29T18:27:46;2.17;;;0.80;;
46365;SDS011;32073;49.166;8.076;2022-12-29T18:31:46;2.38;;;1.33;;
46365;SDS011;32073;49.166;8.076;2022-12-29T18:35:49;3.03;;;0.80;;
46365;SDS011;32073;49.166;8.076;2022-12-29T18:39:54;2.33;;;0.75;;
46365;SDS011;32073;49.166;8.076;2022-12-29T18:43:56;1.95;;;0.80;;
46365;SDS011;32073;49.166;8.076;2022-12-29T18:47:59;3.25;;;0.60;;
46365;SDS011;32073;49.166;8.076;2022-12-29T18:51:59;2.47;;;0.77;;
46365;SDS011;32073;49.166;8.076;2022-12-29T18:56:00;2.40;;;0.47;;
46365;SDS011;32073;49.166;8.076;2022-12-29T19:00:01;4.28;;;0.70;;
46365;SDS011;32073;49.166;8.076;2022-12-29T19:04:03;3.90;;;0.75;;
46365;SDS011;32073;49.166;8.076;2022-12-29T19:08:04;3.63;;;1.48;;
46365;SDS011;32073;49.166;8.076;2022-12-29T19:16:39;88.18;;;37.85;;
46365;SDS011;32073;49.166;8.076;2022-12-29T19:20:41;38.33;;;16.45;;
46365;SDS011;32073;49.166;8.076;2022-12-29T19:24:43;36.70;;;14.48;;
46365;SDS011;32073;49.166;8.076;2022-12-29T19:28:43;26.15;;;9.35;;
46365;SDS011;32073;49.166;8.076;2022-12-29T19:32:47;15.07;;;5.75;;
46365;SDS011;32073;49.166;8.076;2022-12-29T19:36:51;39.38;;;17.42;;
46365;SDS011;32073;49.166;8.076;2022-12-29T19:40:52;29.00;;;13.23;;
46365;SDS011;32073;49.166;8.076;2022-12-29T19:44:53;32.38;;;14.30;;
46365;SDS011;32073;49.166;8.076;2022-12-29T19:48:53;26.92;;;13.15;;
46365;SDS011;32073;49.166;8.076;2022-12-29T19:52:57;74.68;;;33.22;;
46365;SDS011;32073;49.166;8.076;2022-12-29T19:56:58;52.38;;;23.98;;
46365;SDS011;32073;49.166;8.076;2022-12-29T20:01:03;12.70;;;6.15;;
46365;SDS011;32073;49.166;8.076;2022-12-29T20:05:05;7.68;;;4.50;;
46365;SDS011;32073;49.166;8.076;2022-12-29T20:09:07;5.05;;;2.20;;
46365;SDS011;32073;49.166;8.076;2022-12-29T20:13:08;3.10;;;1.40;;
46365;SDS011;32073;49.166;8.076;2022-12-29T20:17:09;4.57;;;1.40;;
46365;SDS011;32073;49.166;8.076;2022-12-29T20:21:13;3.53;;;1.48;;
46365;SDS011;32073;49.166;8.076;2022-12-29T20:25:17;3.80;;;1.42;;
46365;SDS011;32073;49.166;8.076;2022-12-29T20:29:18;2.13;;;1.13;;
46365;SDS011;32073;49.166;8.076;2022-12-29T20:33:19;3.88;;;1.00;;
46365;SDS011;32073;49.166;8.076;2022-12-29T20:37:21;3.10;;;1.10;;
46365;SDS011;32073;49.166;8.076;2022-12-29T20:41:22;5.68;;;0.85;;
46365;SDS011;32073;49.166;8.076;2022-12-29T20:45:23;2.72;;;0.60;;
46365;SDS011;32073;49.166;8.076;2022-12-29T20:49:24;2.85;;;1.08;;
46365;SDS011;32073;49.166;8.076;2022-12-29T20:53:28;5.80;;;1.65;;
46365;SDS011;32073;49.166;8.076;2022-12-29T20:57:31;2.22;;;0.80;;
46365;SDS011;32073;49.166;8.076;2022-12-29T21:01:32;7.85;;;3.10;;
46365;SDS011;32073;49.166;8.076;2022-12-29T21:05:34;3.58;;;1.33;;
46365;SDS011;32073;49.166;8.076;2022-12-29T21:09:37;3.55;;;0.68;;
46365;SDS011;32073;49.166;8.076;2022-12-29T21:13:37;56.28;;;19.75;;
46365;SDS011;32073;49.166;8.076;2022-12-29T21:17:38;11.40;;;4.95;;
46365;SDS011;32073;49.166;8.076;2022-12-29T21:21:39;6.40;;;2.13;;
46365;SDS011;32073;49.166;8.076;2022-12-29T21:25:42;5.35;;;1.85;;
46365;SDS011;32073;49.166;8.076;2022-12-29T21:29:43;3.72;;;1.77;;
46365;SDS011;32073;49.166;8.076;2022-12-29T21:33:44;3.55;;;1.15;;
46365;SDS011;32073;49.166;8.076;2022-12-29T21:37:45;3.25;;;1.40;;
46365;SDS011;32073;49.166;8.076;2022-12-29T21:41:45;2.90;;;1.08;;
46365;SDS011;32073;49.166;8.076;2022-12-29T21:45:49;2.10;;;0.63;;
46365;SDS011;32073;49.166;8.076;2022-12-29T21:49:50;5.10;;;0.90;;
46365;SDS011;32073;49.166;8.076;2022-12-29T21:54:00;3.42;;;1.20;;
46365;SDS011;32073;49.166;8.076;2022-12-29T21:58:19;2.10;;;0.80;;
46365;SDS011;32073;49.166;8.076;2022-12-29T22:19:39;2.60;;;0.75;;
46365;SDS011;32073;49.166;8.076;2022-12-29T22:23:39;1.40;;;0.70;;
46365;SDS011;32073;49.166;8.076;2022-12-29T22:27:40;2.88;;;0.80;;
46365;SDS011;32073;49.166;8.076;2022-12-29T22:31:41;2.83;;;0.95;;
46365;SDS011;32073;49.166;8.076;2022-12-29T22:35:42;1.70;;;0.82;;
46365;SDS011;32073;49.166;8.076;2022-12-29T22:39:43;2.92;;;1.10;;
46365;SDS011;32073;49.166;8.076;2022-12-29T22:43:44;4.32;;;1.08;;
46365;SDS011;32073;49.166;8.076;2022-12-29T22:47:45;3.08;;;1.00;;
46365;SDS011;32073;49.166;8.076;2022-12-29T22:51:46;3.95;;;1.15;;
46365;SDS011;32073;49.166;8.076;2022-12-29T22:55:47;2.80;;;1.10;;
46365;SDS011;32073;49.166;8.076;2022-12-29T22:59:47;3.33;;;0.93;;
46365;SDS011;32073;49.166;8.076;2022-12-29T23:03:48;5.15;;;1.13;;
46365;SDS011;32073;49.166;8.076;2022-12-29T23:07:52;4.43;;;0.82;;
46365;SDS011;32073;49.166;8.076;2022-12-29T23:11:52;5.72;;;1.13;;
46365;SDS011;32073;49.166;8.076;2022-12-29T23:15:53;2.75;;;0.50;;
46365;SDS011;32073;49.166;8.076;2022-12-29T23:19:54;3.85;;;1.25;;
46365;SDS011;32073;49.166;8.076;2022-12-29T23:23:55;5.30;;;1.08;;
46365;SDS011;32073;49.166;8.076;2022-12-29T23:27:56;6.32;;;0.90;;
46365;SDS011;32073;49.166;8.076;2022-12-29T23:31:56;4.50;;;0.80;;
46365;SDS011;32073;49.166;8.076;2022-12-29T23:35:57;4.30;;;0.93;;
46365;SDS011;32073;49.166;8.076;2022-12-29T23:39:58;3.90;;;0.70;;
46365;SDS011;32073;49.166;8.076;2022-12-29T23:43:59;2.75;;;0.70;;
46365;SDS011;32073;49.166;8.076;2022-12-29T23:47:59;4.32;;;0.95;;
46365;SDS011;32073;49.166;8.076;2022-12-29T23:52:00;9.70;;;0.93;;
46365;SDS011;32073;49.166;8.076;2022-12-29T23:56:01;5.32;;;0.73;;
